Time;durP1;ratioP1;P1;durP2;ratioP2;P2;SDS_P1;SDS_P2;PMS_P1;PMS_P2;Temp;Humidity;BMP_temperature;BMP_pressure;BME280_temperature;BME280_humidity;BME280_pressure;Samples;Min_cycle;Max_cycle;Signal;HPM_P1;HPM_P2
2023/09/30 08:37:33;;;;;;;9.07;1.98;;;;;;;-145.67;100.00;66521.78;6184488;22;20021;-90
2023/09/30 08:39:59;;;;;;;8.55;2.17;;;;;;;-145.67;100.00;66521.78;6181386;23;20024;-91
2023/09/30 08:42:29;;;;;;;7.53;1.67;;;;;;;-145.67;100.00;66521.78;6179600;23;20012;-91
2023/09/30 08:44:55;;;;;;;10.68;1.90;;;;;;;-145.67;100.00;66521.78;6180891;23;20013;-91
2023/09/30 08:47:22;;;;;;;7.03;2.05;;;;;;;-145.67;100.00;66521.78;6180892;23;20012;-90
2023/09/30 08:49:48;;;;;;;9.32;2.00;;;;;;;-145.67;100.00;66521.78;6178125;23;20039;-90
2023/09/30 08:52:14;;;;;;;8.38;1.60;;;;;;;-145.67;100.00;66521.78;6154453;23;20004;-91
2023/09/30 08:54:40;;;;;;;16.33;2.45;;;;;;;-145.67;100.00;66521.78;6154490;23;20089;-92
2023/09/30 08:57:08;;;;;;;14.48;2.60;;;;;;;-145.67;100.00;66521.78;6180743;23;20001;-90
2023/09/30 08:59:35;;;;;;;12.90;2.17;;;;;;;-145.67;100.00;66521.78;6152922;23;20012;-89
2023/09/30 09:02:02;;;;;;;8.27;1.95;;;;;;;-145.67;100.00;66521.78;6181588;23;20032;-92
2023/09/30 09:04:28;;;;;;;6.47;1.70;;;;;;;-145.67;100.00;66521.78;6180516;23;20013;-90
2023/09/30 09:06:57;;;;;;;15.82;2.75;;;;;;;-145.67;100.00;66521.78;6180753;23;20080;-93
2023/09/30 09:09:22;;;;;;;11.10;2.72;;;;;;;-145.67;100.00;66521.78;6180937;23;20004;-93
2023/09/30 09:11:51;;;;;;;19.17;3.33;;;;;;;-145.67;100.00;66521.78;6152730;23;20044;-92
2023/09/30 09:14:16;;;;;;;10.48;2.10;;;;;;;-145.67;100.00;66521.78;6180888;23;20005;-95
2023/09/30 09:17:04;;;;;;;11.93;1.50;;;;;;;-145.67;100.00;66521.78;6179118;23;20012;-89
2023/09/30 09:19:30;;;;;;;11.60;1.60;;;;;;;-145.67;100.00;66521.78;6179659;23;20013;-85
2023/09/30 09:22:00;;;;;;;8.73;1.80;;;;;;;-145.67;100.00;66521.78;6154616;23;20011;-94
2023/09/30 09:24:30;;;;;;;8.80;1.70;;;;;;;-145.67;100.00;66521.78;6181387;23;20306;-94
2023/09/30 09:27:09;;;;;;;6.47;1.80;;;;;;;-145.67;100.00;66521.78;6179921;23;20001;-94
2023/09/30 09:29:36;;;;;;;13.20;2.00;;;;;;;-145.67;100.00;66521.78;6179284;23;20067;-94
2023/09/30 09:32:15;;;;;;;11.32;2.35;;;;;;;-145.67;100.00;66521.78;6180953;23;20079;-93
2023/09/30 09:34:43;;;;;;;8.13;1.90;;;;;;;-145.67;100.00;66521.78;6154060;23;20005;-94
2023/09/30 09:37:15;;;;;;;10.95;1.42;;;;;;;-145.67;100.00;66521.78;6181411;23;20044;-95
2023/09/30 09:39:56;;;;;;;7.57;1.60;;;;;;;-145.67;100.00;66521.78;6181874;23;20084;-93
2023/09/30 09:42:31;;;;;;;9.35;1.70;;;;;;;-145.67;100.00;66521.78;6180345;23;20008;-93
2023/09/30 09:44:59;;;;;;;7.78;1.60;;;;;;;-145.67;100.00;66521.78;6183506;23;19997;-93
2023/09/30 09:47:25;;;;;;;11.23;2.08;;;;;;;-145.67;100.00;66521.78;6185319;23;20083;-94
2023/09/30 09:49:52;;;;;;;6.13;2.00;;;;;;;-145.67;100.00;66521.78;6182368;23;20001;-90
2023/09/30 09:52:19;;;;;;;9.52;2.10;;;;;;;-145.67;100.00;66521.78;6184620;23;19997;-95
2023/09/30 09:54:45;;;;;;;12.30;1.95;;;;;;;-145.67;100.00;66521.78;6158265;23;20001;-94
2023/09/30 09:57:11;;;;;;;6.10;1.55;;;;;;;-145.67;100.00;66521.78;6182994;23;20027;-93
2023/09/30 09:59:39;;;;;;;9.25;1.73;;;;;;;-145.67;100.00;66521.78;6182565;23;20431;-93
2023/09/30 10:02:10;;;;;;;7.45;1.80;;;;;;;-145.67;100.00;66521.78;6181627;23;20327;-93
2023/09/30 10:04:36;;;;;;;7.05;1.40;;;;;;;-145.67;100.00;66521.78;6182757;23;20009;-94
2023/09/30 10:07:03;;;;;;;7.75;1.60;;;;;;;-145.67;100.00;66521.78;6156293;23;20423;-92
2023/09/30 10:09:30;;;;;;;9.50;1.58;;;;;;;-145.67;100.00;66521.78;6154803;23;20016;-91
2023/09/30 10:12:01;;;;;;;9.23;2.00;;;;;;;-145.67;100.00;66521.78;6181519;23;20001;-92
2023/09/30 10:14:32;;;;;;;;;;;;;;;-145.67;100.00;66521.78;6182147;23;20080;-93
2023/09/30 10:16:58;;;;;;;9.27;1.73;;;;;;;-145.67;100.00;66521.78;6180869;23;19912;-94
2023/09/30 10:19:24;;;;;;;7.13;1.52;;;;;;;-145.67;100.00;66521.78;6182960;23;20036;-93
2023/09/30 10:22:21;;;;;;;5.25;1.45;;;;;;;-145.67;100.00;66521.78;6181838;23;20010;-93
2023/09/30 10:24:55;;;;;;;11.15;1.90;;;;;;;-145.67;100.00;66521.78;6182891;23;20009;-93
2023/09/30 10:27:37;;;;;;;11.77;1.80;;;;;;;-145.67;100.00;66521.78;6181330;23;20021;-93
2023/09/30 10:30:06;;;;;;;7.93;1.75;;;;;;;-145.67;100.00;66521.78;6180957;23;20028;-93
2023/09/30 10:32:50;;;;;;;8.52;1.55;;;;;;;-145.67;100.00;66521.78;6180997;23;20076;-95
2023/09/30 10:35:20;;;;;;;8.15;1.83;;;;;;;-145.67;100.00;66521.78;6180903;23;20084;-93
2023/09/30 10:37:46;;;;;;;7.72;1.70;;;;;;;-145.67;100.00;66521.78;6153704;23;20017;-93
2023/09/30 10:40:27;;;;;;;7.55;1.55;;;;;;;-145.67;100.00;66521.78;6181219;23;20514;-95
2023/09/30 10:42:55;;;;;;;9.45;1.67;;;;;;;-145.67;100.00;66521.78;6180408;23;20008;-95
2023/09/30 10:45:43;;;;;;;7.15;1.70;;;;;;;-145.67;100.00;66521.78;6179315;23;20419;-93
2023/09/30 10:48:41;;;;;;;8.98;1.58;;;;;;;-145.67;100.00;66521.78;6180908;23;20008;-93
2023/09/30 10:51:15;;;;;;;8.68;1.85;;;;;;;-145.67;100.00;66521.78;6131003;23;20008;-92
2023/09/30 10:53:43;;;;;;;11.68;1.85;;;;;;;-145.67;100.00;66521.78;6182128;23;20083;-93
2023/09/30 10:56:11;;;;;;;6.57;1.70;;;;;;;-145.67;100.00;66521.78;6179881;23;20079;-93
2023/09/30 10:58:45;;;;;;;13.27;2.08;;;;;;;-145.67;100.00;66521.78;6181285;23;20005;-94
2023/09/30 11:01:13;;;;;;;6.15;1.40;;;;;;;-145.67;100.00;66521.78;6156257;23;20031;-91
2023/09/30 11:03:39;;;;;;;8.40;1.73;;;;;;;-145.67;100.00;66521.78;6182983;23;20008;-91
2023/09/30 11:06:05;;;;;;;8.98;1.90;;;;;;;-145.67;100.00;66521.78;6153977;23;20049;-92
2023/09/30 11:08:30;;;;;;;11.00;2.00;;;;;;;-145.67;100.00;66521.78;6180506;23;20023;-92
2023/09/30 11:10:56;;;;;;;8.98;1.95;;;;;;;-145.67;100.00;66521.78;6154682;23;20083;-91
2023/09/30 11:13:22;;;;;;;8.13;1.77;;;;;;;-145.67;100.00;66521.78;6180701;23;20005;-92
2023/09/30 11:15:47;;;;;;;11.13;2.03;;;;;;;-145.67;100.00;66521.78;6154827;23;20013;-93
2023/09/30 11:18:17;;;;;;;10.32;2.10;;;;;;;-145.67;100.00;66521.78;6153628;23;20009;-94
2023/09/30 11:20:44;;;;;;;10.68;1.92;;;;;;;-145.67;100.00;66521.78;6129954;23;20040;-93
2023/09/30 11:23:10;;;;;;;10.80;1.90;;;;;;;-145.67;100.00;66521.78;6179699;23;20176;-94
2023/09/30 11:25:37;;;;;;;10.48;1.92;;;;;;;-145.67;100.00;66521.78;6154290;23;20423;-93
2023/09/30 11:28:19;;;;;;;9.15;1.75;;;;;;;-145.67;100.00;66521.78;6179971;23;20380;-93
2023/09/30 11:31:02;;;;;;;11.45;2.13;;;;;;;-145.67;100.00;66521.78;6156137;23;20211;-95
2023/09/30 11:33:28;;;;;;;9.38;1.77;;;;;;;-145.67;100.00;66521.78;6163574;23;20084;-91
2023/09/30 11:36:05;;;;;;;7.22;2.30;;;;;;;-145.67;100.00;66521.78;6186860;23;20108;-94
2023/09/30 11:38:31;;;;;;;7.28;1.80;;;;;;;-145.67;100.00;66521.78;6159570;23;20013;-93
2023/09/30 11:41:06;;;;;;;9.75;2.22;;;;;;;-145.67;100.00;66521.78;6184525;23;20033;-95
2023/09/30 11:43:35;;;;;;;7.40;1.90;;;;;;;-145.67;100.00;66521.78;6183231;23;20005;-94
2023/09/30 11:46:13;;;;;;;9.77;1.85;;;;;;;-145.67;100.00;66521.78;6156513;23;20362;-92
2023/09/30 11:49:02;;;;;;;8.68;1.85;;;;;;;-145.67;100.00;66521.78;6183099;23;20005;-93
2023/09/30 11:51:29;;;;;;;10.18;2.05;;;;;;;-145.67;100.00;66521.78;6155597;23;20366;-94
2023/09/30 11:53:57;;;;;;;7.97;1.80;;;;;;;-145.67;100.00;66521.78;6182846;23;20005;-93
2023/09/30 11:56:27;;;;;;;9.68;2.33;;;;;;;-145.67;100.00;66521.78;6155973;23;20004;-93
2023/09/30 11:58:54;;;;;;;10.93;2.15;;;;;;;-145.67;100.00;66521.78;6179782;23;20036;-91
2023/09/30 12:01:21;;;;;;;8.65;2.08;;;;;;;-145.67;100.00;66521.78;6183772;23;19997;-93
2023/09/30 12:03:47;;;;;;;8.32;2.10;;;;;;;-145.67;100.00;66521.78;6156689;23;20028;-92
2023/09/30 12:06:13;;;;;;;7.80;1.80;;;;;;;-145.67;100.00;66521.78;6183117;23;20079;-92
2023/09/30 12:08:40;;;;;;;9.00;1.60;;;;;;;-145.67;100.00;66521.78;6182484;23;20076;-92
2023/09/30 12:11:05;;;;;;;9.60;2.30;;;;;;;-145.67;100.00;66521.78;6183186;23;20410;-93
2023/09/30 12:13:31;;;;;;;8.38;2.13;;;;;;;-145.67;100.00;66521.78;6183863;23;20012;-92
2023/09/30 12:15:57;;;;;;;8.23;2.00;;;;;;;-145.67;100.00;66521.78;6184221;23;20080;-92
2023/09/30 12:18:24;;;;;;;6.35;1.98;;;;;;;-145.67;100.00;66521.78;6195350;22;20000;-92
2023/09/30 12:20:54;;;;;;;10.27;2.53;;;;;;;-145.67;100.00;66521.78;6207170;23;20044;-89
2023/09/30 12:23:19;;;;;;;14.10;2.15;;;;;;;-145.67;100.00;66521.78;6209245;22;20078;-92
2023/09/30 12:25:46;;;;;;;10.32;2.20;;;;;;;-145.67;100.00;66521.78;6209359;22;20013;-94
2023/09/30 12:28:13;;;;;;;8.35;2.10;;;;;;;-145.67;100.00;66521.78;6208940;22;20005;-96
2023/09/30 12:30:39;;;;;;;10.93;2.42;;;;;;;-145.67;100.00;66521.78;6203057;22;20099;-90
2023/09/30 12:33:06;;;;;;;9.75;2.38;;;;;;;-145.67;100.00;66521.78;6162076;23;19997;-91
2023/09/30 12:35:32;;;;;;;13.68;2.53;;;;;;;-145.67;100.00;66521.78;6194992;23;20005;-92
2023/09/30 12:37:57;;;;;;;10.07;2.65;;;;;;;-145.67;100.00;66521.78;6192571;23;20052;-91
2023/09/30 12:40:23;;;;;;;11.57;2.15;;;;;;;-145.67;100.00;66521.78;6166134;23;20084;-92
2023/09/30 12:42:48;;;;;;;9.63;2.35;;;;;;;-145.67;100.00;66521.78;6161899;23;20423;-93
2023/09/30 12:45:14;;;;;;;12.82;2.63;;;;;;;-145.67;100.00;66521.78;6182003;23;20048;-93
2023/09/30 12:47:39;;;;;;;10.25;2.47;;;;;;;-145.67;100.00;66521.78;6183587;23;20296;-91
2023/09/30 12:50:08;;;;;;;12.70;2.40;;;;;;;-145.67;100.00;66521.78;6181430;23;20007;-92
2023/09/30 12:52:34;;;;;;;11.60;2.30;;;;;;;-145.67;100.00;66521.78;6181494;23;20245;-90
2023/09/30 12:55:00;;;;;;;14.98;3.15;;;;;;;-145.67;100.00;66521.78;6180399;23;20078;-91
2023/09/30 12:57:25;;;;;;;14.52;2.72;;;;;;;-145.67;100.00;66521.78;6181067;23;20001;-91
2023/09/30 12:59:51;;;;;;;10.90;3.00;;;;;;;-145.67;100.00;66521.78;6181265;23;20012;-93
2023/09/30 13:02:18;;;;;;;11.27;2.72;;;;;;;-145.67;100.00;66521.78;6181560;23;20005;-94
2023/09/30 13:04:44;;;;;;;11.73;2.70;;;;;;;-145.67;100.00;66521.78;6181031;23;20004;-91
2023/09/30 13:07:10;;;;;;;16.48;3.05;;;;;;;-145.67;100.00;66521.78;6181139;23;20498;-94
2023/09/30 13:09:36;;;;;;;10.13;2.90;;;;;;;-145.67;100.00;66521.78;6181285;23;20047;-93
2023/09/30 13:12:03;;;;;;;13.27;3.05;;;;;;;-145.67;100.00;66521.78;6180984;23;20013;-90
2023/09/30 13:14:28;;;;;;;13.57;2.88;;;;;;;-145.67;100.00;66521.78;6155508;23;20422;-95
2023/09/30 13:16:54;;;;;;;17.02;3.17;;;;;;;-145.67;100.00;66521.78;6182038;23;20012;-93
2023/09/30 13:19:21;;;;;;;11.07;2.83;;;;;;;-145.67;100.00;66521.78;6182069;23;20008;-94
2023/09/30 13:21:47;;;;;;;15.07;3.40;;;;;;;-145.67;100.00;66521.78;6182699;23;20324;-92
2023/09/30 13:24:13;;;;;;;12.02;2.80;;;;;;;-145.67;100.00;66521.78;6182260;23;20009;-96
2023/09/30 13:26:39;;;;;;;13.40;2.67;;;;;;;-145.67;100.00;66521.78;6183743;23;20005;-92
2023/09/30 13:29:09;;;;;;;12.32;3.35;;;;;;;-145.67;100.00;66521.78;6183588;23;20009;-94
2023/09/30 13:31:37;;;;;;;12.88;2.97;;;;;;;-145.67;100.00;66521.78;6158419;23;20088;-93
2023/09/30 13:34:03;;;;;;;15.40;3.00;;;;;;;-145.67;100.00;66521.78;6181939;23;20005;-92
2023/09/30 13:36:28;;;;;;;12.75;3.22;;;;;;;-145.67;100.00;66521.78;6181402;23;20009;-94
2023/09/30 13:38:54;;;;;;;11.18;2.72;;;;;;;-145.67;100.00;66521.78;6156080;23;20168;-93
2023/09/30 13:41:19;;;;;;;13.18;2.85;;;;;;;-145.67;100.00;66521.78;6181678;23;20040;-94
2023/09/30 13:43:45;;;;;;;13.68;2.70;;;;;;;-145.67;100.00;66521.78;6181099;23;20001;-92
2023/09/30 13:46:12;;;;;;;15.10;3.03;;;;;;;-145.67;100.00;66521.78;6181257;23;20009;-93
2023/09/30 13:48:38;;;;;;;13.23;3.17;;;;;;;-145.67;100.00;66521.78;6180797;23;20055;-93
2023/09/30 13:51:07;;;;;;;11.95;3.05;;;;;;;-145.67;100.00;66521.78;6155547;23;20005;-96
2023/09/30 13:53:32;;;;;;;14.48;3.25;;;;;;;-145.67;100.00;66521.78;6182409;23;20005;-95
2023/09/30 13:55:58;;;;;;;12.63;2.60;;;;;;;-145.67;100.00;66521.78;6182295;23;20080;-93
2023/09/30 13:58:24;;;;;;;14.45;2.65;;;;;;;-145.67;100.00;66521.78;6182479;23;20481;-95
2023/09/30 14:00:51;;;;;;;14.20;2.85;;;;;;;-145.67;100.00;66521.78;6154209;23;19997;-95
2023/09/30 14:03:18;;;;;;;13.23;2.72;;;;;;;-145.67;100.00;66521.78;6181931;23;20008;-94
2023/09/30 14:05:45;;;;;;;11.48;2.55;;;;;;;-145.67;100.00;66521.78;6182286;23;20001;-93
2023/09/30 14:08:11;;;;;;;11.43;2.67;;;;;;;-145.67;100.00;66521.78;6182808;23;20084;-94
2023/09/30 14:10:36;;;;;;;13.55;2.30;;;;;;;-145.67;100.00;66521.78;6182171;23;20016;-94
2023/09/30 14:13:03;;;;;;;12.82;2.40;;;;;;;-145.67;100.00;66521.78;6182654;23;20009;-95
2023/09/30 14:15:30;;;;;;;9.15;2.10;;;;;;;-145.67;100.00;66521.78;6181903;23;20001;-94
2023/09/30 14:17:58;;;;;;;15.52;2.60;;;;;;;-145.67;100.00;66521.78;6156657;23;20000;-95
2023/09/30 14:20:24;;;;;;;14.98;2.53;;;;;;;-145.67;100.00;66521.78;6182029;23;20012;-94
2023/09/30 14:22:51;;;;;;;10.15;3.15;;;;;;;-145.67;100.00;66521.78;6181990;23;20055;-94
2023/09/30 14:25:17;;;;;;;12.93;3.25;;;;;;;-145.67;100.00;66521.78;6182783;23;20000;-95
2023/09/30 14:27:42;;;;;;;9.23;2.50;;;;;;;-145.67;100.00;66521.78;6182939;23;20000;-95
2023/09/30 14:30:08;;;;;;;10.48;2.15;;;;;;;-145.67;100.00;66521.78;6182317;23;20001;-95
2023/09/30 14:32:34;;;;;;;14.60;2.40;;;;;;;-145.67;100.00;66521.78;6157327;23;20064;-96
2023/09/30 14:34:59;;;;;;;14.98;2.85;;;;;;;-145.67;100.00;66521.78;6170269;23;20001;-94
2023/09/30 14:37:24;;;;;;;12.02;2.60;;;;;;;-145.67;100.00;66521.78;6205812;22;20493;-94
2023/09/30 14:39:50;;;;;;;9.23;2.40;;;;;;;-145.67;100.00;66521.78;6169631;23;20060;-96
2023/09/30 14:42:16;;;;;;;16.05;2.70;;;;;;;-145.67;100.00;66521.78;6204316;22;20004;-93
2023/09/30 14:44:42;;;;;;;13.82;2.67;;;;;;;-145.67;100.00;66521.78;6199610;23;20001;-95
2023/09/30 14:47:08;;;;;;;14.85;2.67;;;;;;;-145.67;100.00;66521.78;6167809;23;19997;-93
2023/09/30 14:49:34;;;;;;;15.45;2.78;;;;;;;-145.67;100.00;66521.78;6183078;23;20019;-93
2023/09/30 14:51:59;;;;;;;9.13;2.03;;;;;;;-145.67;100.00;66521.78;6158633;23;20084;-93
2023/09/30 14:54:25;;;;;;;12.73;2.30;;;;;;;-145.67;100.00;66521.78;6186927;23;19997;-93
2023/09/30 14:56:50;;;;;;;10.73;2.40;;;;;;;-145.67;100.00;66521.78;6188514;23;20008;-94
2023/09/30 14:59:16;;;;;;;15.77;3.17;;;;;;;-145.67;100.00;66521.78;6184794;23;20035;-93
2023/09/30 15:01:41;;;;;;;15.90;2.88;;;;;;;-145.67;100.00;66521.78;6184066;23;20052;-92
2023/09/30 15:04:09;;;;;;;14.73;2.63;;;;;;;-145.67;100.00;66521.78;6180894;23;19997;-93
2023/09/30 15:06:35;;;;;;;16.33;3.00;;;;;;;-145.67;100.00;66521.78;6181198;23;20005;-93
2023/09/30 15:09:01;;;;;;;18.05;3.03;;;;;;;-145.67;100.00;66521.78;6182686;23;20323;-94
2023/09/30 15:11:27;;;;;;;13.57;2.50;;;;;;;-145.67;100.00;66521.78;6182780;23;20012;-93
2023/09/30 15:13:52;;;;;;;13.07;2.50;;;;;;;-145.67;100.00;66521.78;6183108;23;20237;-93
2023/09/30 15:16:19;;;;;;;13.27;3.08;;;;;;;-145.67;100.00;66521.78;6183009;23;20005;-94
2023/09/30 15:18:46;;;;;;;13.02;2.70;;;;;;;-145.67;100.00;66521.78;6156292;23;20016;-91
2023/09/30 15:21:13;;;;;;;15.23;2.65;;;;;;;-145.67;100.00;66521.78;6157040;23;20331;-94
2023/09/30 15:23:39;;;;;;;11.85;2.60;;;;;;;-145.67;100.00;66521.78;6183241;23;20001;-94
2023/09/30 15:26:04;;;;;;;12.95;2.50;;;;;;;-145.67;100.00;66521.78;6189519;23;20156;-91
2023/09/30 15:28:30;;;;;;;11.73;2.28;;;;;;;-145.67;100.00;66521.78;6184222;23;20005;-93
2023/09/30 15:30:56;;;;;;;13.13;2.67;;;;;;;-145.67;100.00;66521.78;6182895;23;20027;-93
2023/09/30 15:33:22;;;;;;;12.20;2.33;;;;;;;-145.67;100.00;66521.78;6183220;23;20005;-92
2023/09/30 15:35:47;;;;;;;12.57;2.42;;;;;;;-145.67;100.00;66521.78;6156228;23;19997;-93
2023/09/30 15:38:13;;;;;;;18.52;3.13;;;;;;;-145.67;100.00;66521.78;6185171;23;20092;-94
2023/09/30 15:40:57;;;;;;;11.95;2.42;;;;;;;-145.67;100.00;66521.78;6183560;23;20009;-93
2023/09/30 15:43:23;;;;;;;13.65;2.38;;;;;;;-145.67;100.00;66521.78;6184382;23;20032;-91
2023/09/30 15:45:50;;;;;;;14.25;2.80;;;;;;;-145.67;100.00;66521.78;6190451;23;20064;-93
2023/09/30 15:48:16;;;;;;;10.48;2.50;;;;;;;-145.67;100.00;66521.78;6187321;23;20153;-93
2023/09/30 15:50:42;;;;;;;11.48;2.20;;;;;;;-145.67;100.00;66521.78;6186927;23;20312;-94
2023/09/30 15:53:07;;;;;;;9.80;2.38;;;;;;;-145.67;100.00;66521.78;6187747;23;19997;-95
2023/09/30 15:55:33;;;;;;;9.60;2.50;;;;;;;-145.67;100.00;66521.78;6187223;23;20012;-95
2023/09/30 15:57:58;;;;;;;13.35;2.40;;;;;;;-145.67;100.00;66521.78;6188180;23;20418;-96
2023/09/30 16:00:25;;;;;;;11.45;2.22;;;;;;;-145.67;100.00;66521.78;6192044;23;20080;-96
2023/09/30 16:02:50;;;;;;;14.02;2.80;;;;;;;-145.67;100.00;66521.78;6161562;23;20038;-93
2023/09/30 16:05:16;;;;;;;11.65;2.28;;;;;;;-145.67;100.00;66521.78;6157601;23;20004;-92
2023/09/30 16:07:42;;;;;;;11.85;2.25;;;;;;;-145.67;100.00;66521.78;6183605;23;20055;-94
2023/09/30 16:10:08;;;;;;;10.85;2.00;;;;;;;-145.67;100.00;66521.78;6195194;23;20079;-92
2023/09/30 16:12:33;;;;;;;13.95;2.15;;;;;;;-145.67;100.00;66521.78;6197743;23;20311;-94
2023/09/30 16:14:59;;;;;;;11.95;2.25;;;;;;;-145.67;100.00;66521.78;6191145;23;20021;-93
2023/09/30 16:17:24;;;;;;;14.30;2.38;;;;;;;-145.67;100.00;66521.78;6185314;23;20076;-92
2023/09/30 16:19:50;;;;;;;12.07;2.05;;;;;;;-145.67;100.00;66521.78;6191596;23;20004;-95
2023/09/30 16:22:16;;;;;;;13.38;2.20;;;;;;;-145.67;100.00;66521.78;6164852;23;20005;-92
2023/09/30 16:24:41;;;;;;;11.70;2.47;;;;;;;-145.67;100.00;66521.78;6187171;23;20005;-94
2023/09/30 16:27:07;;;;;;;18.45;2.63;;;;;;;-145.67;100.00;66521.78;6187089;23;20005;-93
2023/09/30 16:29:32;;;;;;;13.77;2.35;;;;;;;-145.67;100.00;66521.78;6161023;23;20095;-93
2023/09/30 16:31:58;;;;;;;11.93;2.70;;;;;;;-145.67;100.00;66521.78;6185032;23;20020;-94
2023/09/30 16:34:23;;;;;;;11.50;2.20;;;;;;;-145.67;100.00;66521.78;6183757;23;20170;-96
2023/09/30 16:36:48;;;;;;;13.88;2.08;;;;;;;-145.67;100.00;66521.78;6183271;23;20013;-94
2023/09/30 16:39:14;;;;;;;15.88;2.67;;;;;;;-145.67;100.00;66521.78;6182471;23;20013;-93
2023/09/30 16:41:40;;;;;;;20.80;2.95;;;;;;;-145.67;100.00;66521.78;6186524;23;20306;-94
2023/09/30 16:44:06;;;;;;;11.60;2.40;;;;;;;-145.67;100.00;66521.78;6204345;23;19996;-94
2023/09/30 16:46:32;;;;;;;12.57;2.47;;;;;;;-145.67;100.00;66521.78;6208051;23;20008;-94
2023/09/30 16:48:57;;;;;;;13.63;2.50;;;;;;;-145.67;100.00;66521.78;6179719;23;19993;-95
2023/09/30 16:51:23;;;;;;;11.10;2.10;;;;;;;-145.67;100.00;66521.78;6193555;23;20001;-94
2023/09/30 16:53:48;;;;;;;10.00;2.20;;;;;;;-145.67;100.00;66521.78;6197591;23;20005;-94
2023/09/30 16:56:14;;;;;;;14.65;2.33;;;;;;;-145.67;100.00;66521.78;6191126;23;20000;-95
2023/09/30 16:58:39;;;;;;;11.35;2.25;;;;;;;-145.67;100.00;66521.78;6158415;23;20005;-93
2023/09/30 17:01:12;;;;;;;12.52;2.28;;;;;;;-145.67;100.00;66521.78;6188833;23;19997;-95
2023/09/30 17:03:38;;;;;;;15.88;2.70;;;;;;;-145.67;100.00;66521.78;6163250;23;20004;-93
2023/09/30 17:06:04;;;;;;;10.43;2.40;;;;;;;-145.67;100.00;66521.78;6187193;23;20012;-94
2023/09/30 17:08:30;;;;;;;15.95;2.30;;;;;;;-145.67;100.00;66521.78;6190729;23;20326;-94
2023/09/30 17:10:55;;;;;;;14.20;2.75;;;;;;;-145.67;100.00;66521.78;6182052;23;20346;-94
2023/09/30 17:13:21;;;;;;;12.98;2.47;;;;;;;-145.67;100.00;66521.78;6157329;23;20001;-93
2023/09/30 17:15:46;;;;;;;20.83;3.00;;;;;;;-145.67;100.00;66521.78;6186356;23;20049;-94
2023/09/30 17:18:12;;;;;;;13.50;2.67;;;;;;;-145.67;100.00;66521.78;6159631;23;20051;-94
2023/09/30 17:20:47;;;;;;;16.73;2.65;;;;;;;-145.67;100.00;66521.78;6182522;23;20089;-94
2023/09/30 17:23:13;;;;;;;16.38;2.80;;;;;;;-145.67;100.00;66521.78;6131655;23;20092;-93
2023/09/30 17:25:40;;;;;;;10.00;2.80;;;;;;;-145.67;100.00;66521.78;6182267;23;20001;-95
2023/09/30 17:28:06;;;;;;;13.65;2.40;;;;;;;-145.67;100.00;66521.78;6182203;23;20017;-94
2023/09/30 17:30:35;;;;;;;14.50;2.72;;;;;;;-145.67;100.00;66521.78;6154688;23;20508;-94
2023/09/30 17:33:02;;;;;;;17.98;2.78;;;;;;;-145.67;100.00;66521.78;6181422;23;20001;-95
2023/09/30 17:35:28;;;;;;;13.88;3.00;;;;;;;-145.67;100.00;66521.78;6155135;23;20009;-94
2023/09/30 17:37:54;;;;;;;12.35;2.80;;;;;;;-145.67;100.00;66521.78;6182722;23;20017;-95
2023/09/30 17:40:20;;;;;;;16.20;2.58;;;;;;;-145.67;100.00;66521.78;6181939;23;20013;-94
2023/09/30 17:42:45;;;;;;;11.77;2.83;;;;;;;-145.67;100.00;66521.78;6182730;23;20013;-94
2023/09/30 17:45:12;;;;;;;16.70;2.50;;;;;;;-145.67;100.00;66521.78;6182517;23;20044;-94
2023/09/30 17:47:39;;;;;;;10.00;2.30;;;;;;;-145.67;100.00;66521.78;6156070;23;20007;-94
2023/09/30 17:50:07;;;;;;;12.35;2.13;;;;;;;-145.67;100.00;66521.78;6183199;23;20012;-94
2023/09/30 17:52:32;;;;;;;14.80;2.58;;;;;;;-145.67;100.00;66521.78;6156232;23;20001;-92
2023/09/30 17:54:58;;;;;;;11.93;2.30;;;;;;;-145.67;100.00;66521.78;6181714;23;20001;-93
2023/09/30 17:57:23;;;;;;;10.85;2.47;;;;;;;-145.67;100.00;66521.78;6182332;23;20024;-94
2023/09/30 17:59:49;;;;;;;14.57;2.45;;;;;;;-145.67;100.00;66521.78;6181351;23;20359;-95
2023/09/30 18:02:14;;;;;;;17.45;2.63;;;;;;;-145.67;100.00;66521.78;6180111;23;20001;-93
2023/09/30 18:04:41;;;;;;;12.60;2.30;;;;;;;-145.67;100.00;66521.78;6180560;23;20005;-94
2023/09/30 18:07:08;;;;;;;12.48;2.50;;;;;;;-145.67;100.00;66521.78;6181422;23;20001;-95
2023/09/30 18:09:33;;;;;;;13.55;2.67;;;;;;;-145.67;100.00;66521.78;6180053;23;20032;-95
2023/09/30 18:11:59;;;;;;;12.40;2.60;;;;;;;-145.67;100.00;66521.78;6180075;23;20410;-94
2023/09/30 18:14:24;;;;;;;15.82;2.85;;;;;;;-145.67;100.00;66521.78;6182257;23;20299;-94
2023/09/30 18:16:50;;;;;;;20.50;3.08;;;;;;;-145.67;100.00;66521.78;6181626;23;20008;-94
2023/09/30 18:19:15;;;;;;;11.82;2.38;;;;;;;-145.67;100.00;66521.78;6182680;23;20017;-94
2023/09/30 18:21:41;;;;;;;14.85;2.63;;;;;;;-145.67;100.00;66521.78;6181544;23;20370;-94
2023/09/30 18:24:08;;;;;;;14.80;2.38;;;;;;;-145.67;100.00;66521.78;6181567;23;20012;-94
2023/09/30 18:26:33;;;;;;;13.10;2.58;;;;;;;-145.67;100.00;66521.78;6180313;23;20064;-94
2023/09/30 18:28:59;;;;;;;12.40;3.10;;;;;;;-145.67;100.00;66521.78;6180202;23;20013;-94
2023/09/30 18:31:25;;;;;;;15.45;2.65;;;;;;;-145.67;100.00;66521.78;6181811;23;20000;-93
2023/09/30 18:33:51;;;;;;;20.60;2.72;;;;;;;-145.67;100.00;66521.78;6182009;23;20024;-93
2023/09/30 18:36:16;;;;;;;13.68;3.00;;;;;;;-145.67;100.00;66521.78;6179461;23;20014;-94
2023/09/30 18:38:42;;;;;;;15.32;2.83;;;;;;;-145.67;100.00;66521.78;6155329;23;20009;-93
2023/09/30 18:41:13;;;;;;;11.95;2.75;;;;;;;-145.67;100.00;66521.78;6180669;23;20084;-94
2023/09/30 18:43:39;;;;;;;12.70;3.33;;;;;;;-145.67;100.00;66521.78;6158617;23;20001;-95
2023/09/30 18:46:09;;;;;;;9.38;2.50;;;;;;;-145.67;100.00;66521.78;6183488;23;20449;-93
2023/09/30 18:48:34;;;;;;;13.05;2.47;;;;;;;-145.67;100.00;66521.78;6184417;23;20034;-93
2023/09/30 18:51:00;;;;;;;12.73;3.00;;;;;;;-145.67;100.00;66521.78;6184546;23;20044;-94
2023/09/30 18:53:26;;;;;;;14.18;2.70;;;;;;;-145.67;100.00;66521.78;6184470;23;20073;-94
2023/09/30 18:55:51;;;;;;;12.82;2.60;;;;;;;-145.67;100.00;66521.78;6184673;23;20112;-93
2023/09/30 18:58:17;;;;;;;16.98;3.15;;;;;;;-145.67;100.00;66521.78;6183602;23;20007;-94
2023/09/30 19:00:44;;;;;;;14.98;2.72;;;;;;;-145.67;100.00;66521.78;6134146;23;20052;-93
2023/09/30 19:03:10;;;;;;;12.45;2.42;;;;;;;-145.67;100.00;66521.78;6184631;23;20040;-94
2023/09/30 19:05:37;;;;;;;11.30;2.55;;;;;;;-145.67;100.00;66521.78;6186203;23;20009;-93
2023/09/30 19:08:04;;;;;;;15.95;3.33;;;;;;;-145.67;100.00;66521.78;6158400;23;20067;-94
2023/09/30 19:10:30;;;;;;;18.52;3.05;;;;;;;-145.67;100.00;66521.78;6184844;23;20012;-95
2023/09/30 19:12:55;;;;;;;18.65;2.85;;;;;;;-145.67;100.00;66521.78;6134350;23;20337;-95
2023/09/30 19:15:21;;;;;;;12.20;2.30;;;;;;;-145.67;100.00;66521.78;6185850;23;20316;-93
2023/09/30 19:17:47;;;;;;;14.05;2.90;;;;;;;-145.67;100.00;66521.78;6184595;23;20004;-94
2023/09/30 19:20:14;;;;;;;12.38;2.88;;;;;;;-145.67;100.00;66521.78;6183558;23;20015;-96
2023/09/30 19:22:40;;;;;;;17.50;2.97;;;;;;;-145.67;100.00;66521.78;6182643;23;20059;-93
2023/09/30 19:25:06;;;;;;;16.38;2.92;;;;;;;-145.67;100.00;66521.78;6184092;23;20004;-94
2023/09/30 19:27:31;;;;;;;13.77;2.53;;;;;;;-145.67;100.00;66521.78;6157014;23;20161;-95
2023/09/30 19:29:57;;;;;;;14.40;2.50;;;;;;;-145.67;100.00;66521.78;6185391;23;20005;-93
2023/09/30 19:32:22;;;;;;;17.52;3.08;;;;;;;-145.67;100.00;66521.78;6159851;23;20004;-93
2023/09/30 19:34:48;;;;;;;17.40;2.95;;;;;;;-145.67;100.00;66521.78;6183273;23;20386;-95
2023/09/30 19:37:13;;;;;;;18.17;3.20;;;;;;;-145.67;100.00;66521.78;6184293;23;20021;-94
2023/09/30 19:39:39;;;;;;;17.40;3.45;;;;;;;-145.67;100.00;66521.78;6185116;23;20012;-94
2023/09/30 19:42:04;;;;;;;18.75;3.55;;;;;;;-145.67;100.00;66521.78;6185062;23;20016;-93